createdAt,value
2019-05-11T00:00:24.260Z,7.82
2019-05-11T00:02:52.950Z,7.73
2019-05-11T00:05:21.582Z,7.75
2019-05-11T00:07:50.214Z,7.84
2019-05-11T00:10:18.899Z,7.85
2019-05-11T00:12:47.578Z,7.87
2019-05-11T00:15:16.193Z,7.90
2019-05-11T00:17:44.877Z,7.93
2019-05-11T00:20:13.663Z,7.98
2019-05-11T00:22:42.296Z,8.05
2019-05-11T00:25:11.168Z,8.13
2019-05-11T00:27:39.848Z,8.08
2019-05-11T00:30:09.036Z,7.74
2019-05-11T00:32:37.706Z,7.79
2019-05-11T00:35:07.587Z,7.87
2019-05-11T00:37:36.218Z,7.84
2019-05-11T00:40:13.874Z,7.95
2019-05-11T00:42:35.737Z,8.06
2019-05-11T00:45:05.323Z,8.01
2019-05-11T00:47:34.105Z,8.01
2019-05-11T00:50:02.725Z,7.77
2019-05-11T00:52:31.405Z,7.82
2019-05-11T00:55:00.100Z,7.77
2019-05-11T00:57:28.762Z,7.92
2019-05-11T00:59:57.375Z,8.03
2019-05-11T01:02:26.084Z,8.03
2019-05-11T01:04:56.136Z,7.99
2019-05-11T01:07:24.813Z,7.98
2019-05-11T01:09:53.431Z,8.05
2019-05-11T01:12:22.098Z,7.90
2019-05-11T01:14:50.700Z,7.89
2019-05-11T01:17:19.371Z,7.95
2019-05-11T01:19:48.052Z,7.72
2019-05-11T01:22:16.687Z,7.89
2019-05-11T01:24:45.346Z,7.96
2019-05-11T01:27:13.974Z,7.98
2019-05-11T01:29:44.206Z,7.99
2019-05-11T01:32:12.815Z,8.05
2019-05-11T01:34:41.491Z,8.07
2019-05-11T01:37:10.127Z,7.98
2019-05-11T01:39:38.809Z,8.03
2019-05-11T01:42:07.583Z,8.07
2019-05-11T01:44:36.245Z,8.10
2019-05-11T01:47:04.871Z,7.96
2019-05-11T01:49:33.551Z,7.98
2019-05-11T01:52:02.161Z,7.94
2019-05-11T01:54:30.848Z,7.86
2019-05-11T01:56:59.515Z,7.75
2019-05-11T01:59:28.172Z,7.92
2019-05-11T02:01:56.849Z,8.00
2019-05-11T02:04:25.467Z,7.99
2019-05-11T02:06:54.144Z,7.99
2019-05-11T02:09:22.754Z,7.91
2019-05-11T02:11:51.513Z,7.84
2019-05-11T02:14:20.150Z,7.83
2019-05-11T02:16:48.803Z,7.86
2019-05-11T02:19:17.448Z,7.85
2019-05-11T02:21:46.135Z,7.81
2019-05-11T02:24:14.731Z,7.92
2019-05-11T02:26:43.398Z,7.96
2019-05-11T02:29:12.122Z,7.93
2019-05-11T02:31:40.831Z,7.85
2019-05-11T02:34:09.438Z,7.83
2019-05-11T02:36:38.140Z,7.82
2019-05-11T02:39:08.049Z,7.82
2019-05-11T02:41:37.702Z,7.91
2019-05-11T02:44:06.696Z,7.67
2019-05-11T02:46:35.318Z,7.77
2019-05-11T02:49:03.946Z,7.93
2019-05-11T02:51:33.369Z,7.88
2019-05-11T02:54:03.166Z,7.75
2019-05-11T02:56:31.776Z,7.78
2019-05-11T02:59:00.447Z,7.80
2019-05-11T03:01:29.142Z,7.74
2019-05-11T03:03:57.833Z,7.80
2019-05-11T03:06:26.434Z,7.75
2019-05-11T03:08:56.741Z,7.95
2019-05-11T03:11:25.405Z,7.92
2019-05-11T03:13:54.059Z,8.04
2019-05-11T03:16:22.774Z,8.00
2019-05-11T03:18:51.428Z,7.99
2019-05-11T03:21:20.091Z,7.99
2019-05-11T03:23:48.760Z,7.83
2019-05-11T03:26:17.430Z,7.88
2019-05-11T03:28:46.045Z,7.84
2019-05-11T03:31:14.849Z,7.94
2019-05-11T03:33:43.557Z,8.00
2019-05-11T03:36:12.172Z,8.03
2019-05-11T03:38:40.847Z,8.03
2019-05-11T03:41:09.532Z,7.97
2019-05-11T03:43:38.194Z,7.89
2019-05-11T03:46:06.913Z,7.90
2019-05-11T03:48:35.534Z,7.70
2019-05-11T03:51:04.222Z,7.77
2019-05-11T03:53:32.830Z,7.84
2019-05-11T03:56:01.451Z,7.87
2019-05-11T03:58:30.142Z,7.77
2019-05-11T04:00:58.756Z,7.67
2019-05-11T04:03:27.437Z,7.51
2019-05-11T04:05:56.119Z,7.58
2019-05-11T04:08:24.967Z,7.53
2019-05-11T04:10:53.697Z,7.39
2019-05-11T04:13:22.314Z,7.47
2019-05-11T04:15:50.992Z,7.51
2019-05-11T04:18:19.680Z,7.48
2019-05-11T04:20:48.295Z,7.50
2019-05-11T04:23:16.981Z,7.53
2019-05-11T04:25:45.656Z,7.47
2019-05-11T04:28:14.284Z,7.53
2019-05-11T04:30:42.976Z,7.70
2019-05-11T04:33:11.673Z,7.85
2019-05-11T04:35:40.286Z,8.01
2019-05-11T04:38:08.989Z,8.18
2019-05-11T04:40:37.630Z,8.25
2019-05-11T04:43:06.295Z,8.13
2019-05-11T04:45:34.976Z,8.00
2019-05-11T04:48:03.691Z,8.06
2019-05-11T04:50:32.366Z,8.09
2019-05-11T04:53:01.105Z,8.28
2019-05-11T04:55:30.064Z,8.40
2019-05-11T04:57:58.697Z,8.44
2019-05-11T05:00:27.439Z,8.50
2019-05-11T05:02:56.030Z,8.74
2019-05-11T05:05:24.691Z,8.95
2019-05-11T05:08:08.261Z,9.17
2019-05-11T05:10:23.723Z,9.44
2019-05-11T05:12:53.368Z,9.58
2019-05-11T05:15:22.743Z,9.55
2019-05-11T05:17:51.407Z,9.54
2019-05-11T05:20:20.094Z,9.59
2019-05-11T05:22:48.711Z,9.56
2019-05-11T05:25:17.370Z,9.65
2019-05-11T05:27:46.120Z,9.87
2019-05-11T05:30:14.843Z,10.02
2019-05-11T05:32:43.533Z,10.33
2019-05-11T05:35:12.147Z,10.50
2019-05-11T05:37:40.836Z,10.83
2019-05-11T05:40:12.651Z,11.02
2019-05-11T05:42:41.361Z,10.67
2019-05-11T05:45:10.276Z,11.14
2019-05-11T05:47:38.919Z,11.13
2019-05-11T05:50:07.708Z,11.04
2019-05-11T05:52:36.413Z,10.88
2019-05-11T05:55:07.403Z,10.44
2019-05-11T05:57:36.222Z,10.68
2019-05-11T06:00:05.895Z,10.96
2019-05-11T06:02:34.592Z,10.84
2019-05-11T06:05:03.582Z,10.84
2019-05-11T06:07:32.327Z,11.08
2019-05-11T06:10:01.067Z,11.60
2019-05-11T06:12:29.738Z,11.76
2019-05-11T06:14:58.439Z,11.75
2019-05-11T06:17:27.239Z,12.18
2019-05-11T06:19:56.187Z,12.49
2019-05-11T06:22:24.842Z,12.99
2019-05-11T06:24:57.140Z,13.10
2019-05-11T06:27:29.758Z,13.33
2019-05-11T06:29:56.070Z,13.36
2019-05-11T06:32:24.690Z,13.62
2019-05-11T06:34:53.476Z,13.67
2019-05-11T06:37:22.088Z,13.76
2019-05-11T06:39:50.820Z,13.95
2019-05-11T06:42:19.526Z,14.26
2019-05-11T06:44:48.174Z,14.23
2019-05-11T06:47:16.885Z,14.43
2019-05-11T06:49:45.524Z,14.48
2019-05-11T06:52:15.089Z,14.49
2019-05-11T06:54:43.825Z,14.95
2019-05-11T06:57:12.470Z,14.79
2019-05-11T06:59:41.163Z,15.10
2019-05-11T07:02:09.794Z,15.53
2019-05-11T07:04:40.567Z,15.59
2019-05-11T07:07:09.263Z,15.24
2019-05-11T07:09:37.977Z,14.68
2019-05-11T07:12:06.806Z,15.43
2019-05-11T07:14:35.855Z,14.67
2019-05-11T07:17:04.504Z,14.26
2019-05-11T07:19:33.189Z,14.11
2019-05-11T07:22:01.902Z,14.51
2019-05-11T07:24:30.543Z,14.69
2019-05-11T07:26:59.255Z,15.07
2019-05-11T07:29:30.171Z,15.09
2019-05-11T07:32:05.574Z,14.98
2019-05-11T07:34:29.243Z,15.29
2019-05-11T07:36:57.944Z,15.15
2019-05-11T07:39:27.910Z,14.85
2019-05-11T07:41:58.463Z,14.86
2019-05-11T07:44:35.846Z,15.18
2019-05-11T07:46:58.672Z,15.15
2019-05-11T07:49:29.197Z,14.75
2019-05-11T07:51:58.798Z,15.02
2019-05-11T07:54:28.180Z,15.57
2019-05-11T07:56:58.437Z,15.29
2019-05-11T07:59:28.885Z,15.44
2019-05-11T08:01:58.428Z,15.64
2019-05-11T08:04:28.800Z,15.37
2019-05-11T08:06:58.708Z,15.00
2019-05-11T08:09:27.931Z,15.41
2019-05-11T08:11:58.496Z,15.37
2019-05-11T08:14:28.746Z,15.63
2019-05-11T08:16:59.355Z,15.49
2019-05-11T08:19:28.485Z,15.94
2019-05-11T08:21:58.247Z,15.78
2019-05-11T08:24:28.463Z,16.18
2019-05-11T08:26:58.255Z,16.42
2019-05-11T08:29:27.915Z,16.03
2019-05-11T08:31:57.986Z,16.29
2019-05-11T08:34:28.540Z,16.74
2019-05-11T08:36:58.429Z,16.74
2019-05-11T08:39:28.829Z,16.61
2019-05-11T08:41:59.054Z,16.73
2019-05-11T08:44:28.764Z,16.55
2019-05-11T08:46:58.314Z,16.18
2019-05-11T08:49:28.722Z,16.81
2019-05-11T08:51:58.215Z,17.13
2019-05-11T08:54:28.826Z,16.98
2019-05-11T08:56:58.752Z,17.31
2019-05-11T08:59:28.080Z,17.28
2019-05-11T09:01:58.755Z,17.28
2019-05-11T09:04:28.883Z,16.92
2019-05-11T09:06:58.661Z,17.57
2019-05-11T09:09:28.679Z,17.14
2019-05-11T09:11:58.855Z,17.20
2019-05-11T09:14:28.446Z,17.46
2019-05-11T09:16:57.907Z,17.56
2019-05-11T09:19:28.418Z,17.89
2019-05-11T09:21:59.064Z,18.14
2019-05-11T09:24:28.305Z,17.97
2019-05-11T09:26:58.652Z,18.29
2019-05-11T09:29:28.163Z,18.18
2019-05-11T09:31:58.177Z,18.51
2019-05-11T09:34:28.811Z,18.02
2019-05-11T09:36:58.642Z,18.06
2019-05-11T09:39:28.179Z,18.06
2019-05-11T09:41:58.394Z,17.80
2019-05-11T09:44:28.830Z,17.93
2019-05-11T09:47:02.686Z,17.62
2019-05-11T09:49:43.777Z,17.36
2019-05-11T09:52:02.494Z,17.92
2019-05-11T09:54:31.325Z,18.16
2019-05-11T09:56:59.956Z,18.34
2019-05-11T09:59:28.566Z,18.28
2019-05-11T10:01:58.907Z,18.57
2019-05-11T10:04:28.811Z,18.47
2019-05-11T10:06:58.507Z,18.61
2019-05-11T10:09:28.133Z,18.34
2019-05-11T10:11:58.472Z,18.40
2019-05-11T10:14:28.847Z,18.56
2019-05-11T10:16:58.440Z,18.63
2019-05-11T10:19:28.473Z,18.28
2019-05-11T10:21:58.125Z,18.42
2019-05-11T10:24:28.387Z,18.43
2019-05-11T10:26:57.919Z,18.92
2019-05-11T10:29:28.866Z,18.60
2019-05-11T10:31:58.755Z,18.70
2019-05-11T10:34:28.479Z,18.82
2019-05-11T10:36:58.100Z,18.64
2019-05-11T10:39:27.975Z,18.72
2019-05-11T10:41:58.314Z,18.65
2019-05-11T10:44:28.120Z,18.69
2019-05-11T10:46:58.887Z,18.65
2019-05-11T10:49:28.909Z,19.08
2019-05-11T10:51:58.656Z,19.12
2019-05-11T10:54:28.768Z,19.02
2019-05-11T10:56:58.063Z,18.84
2019-05-11T10:59:28.284Z,19.04
2019-05-11T11:01:59.055Z,19.13
2019-05-11T11:04:28.762Z,19.19
2019-05-11T11:06:59.098Z,19.33
2019-05-11T11:09:28.458Z,19.31
2019-05-11T11:11:57.915Z,19.34
2019-05-11T11:14:28.696Z,19.27
2019-05-11T11:16:58.438Z,19.52
2019-05-11T11:19:29.034Z,19.76
2019-05-11T11:22:22.220Z,19.55
2019-05-11T11:24:29.224Z,19.52
2019-05-11T11:26:57.902Z,19.60
2019-05-11T11:29:28.821Z,19.24
2019-05-11T11:31:58.694Z,19.10
2019-05-11T11:34:28.109Z,19.00
2019-05-11T11:36:58.024Z,18.98
2019-05-11T11:39:28.279Z,19.15
2019-05-11T11:41:58.605Z,19.20
2019-05-11T11:44:28.575Z,19.22
2019-05-11T11:46:59.025Z,19.51
2019-05-11T11:49:28.419Z,19.60
2019-05-11T11:51:58.016Z,19.47
2019-05-11T11:54:28.795Z,19.60
2019-05-11T11:56:58.961Z,19.90
2019-05-11T11:59:28.735Z,20.27
2019-05-11T12:01:58.269Z,20.40
2019-05-11T12:04:28.241Z,20.44
2019-05-11T12:06:58.141Z,20.42
2019-05-11T12:09:30.177Z,20.73
2019-05-11T12:11:58.953Z,20.92
2019-05-11T12:14:28.201Z,20.75
2019-05-11T12:17:07.471Z,20.98
2019-05-11T12:19:29.206Z,20.92
2019-05-11T12:21:59.467Z,20.32
2019-05-11T12:24:28.858Z,20.32
2019-05-11T12:26:58.730Z,20.57
2019-05-11T12:29:28.275Z,20.70
2019-05-11T12:31:58.987Z,20.24
2019-05-11T12:34:28.288Z,20.46
2019-05-11T12:36:58.117Z,20.87
2019-05-11T12:39:28.194Z,20.98
2019-05-11T12:41:58.238Z,21.36
2019-05-11T12:44:28.395Z,21.27
2019-05-11T12:46:58.368Z,20.82
2019-05-11T12:49:28.861Z,20.96
2019-05-11T12:51:58.326Z,21.54
2019-05-11T12:54:28.006Z,20.57
2019-05-11T12:56:58.025Z,20.58
2019-05-11T12:59:27.789Z,20.47
2019-05-11T13:01:59.003Z,20.62
2019-05-11T13:04:28.223Z,20.63
2019-05-11T13:06:58.165Z,20.74
2019-05-11T13:09:28.868Z,20.84
2019-05-11T13:11:58.806Z,21.24
2019-05-11T13:14:29.397Z,21.22
2019-05-11T13:16:58.974Z,21.05
2019-05-11T13:19:28.351Z,21.00
2019-05-11T13:21:59.025Z,21.02
2019-05-11T13:24:28.316Z,20.74
2019-05-11T13:26:59.566Z,20.48
2019-05-11T13:29:28.627Z,20.77
2019-05-11T13:31:59.156Z,20.79
2019-05-11T13:34:31.235Z,20.48
2019-05-11T13:36:58.599Z,20.41
2019-05-11T13:39:28.567Z,20.56
2019-05-11T13:41:58.043Z,20.20
2019-05-11T13:44:28.058Z,20.21
2019-05-11T13:46:58.630Z,20.31
2019-05-11T13:49:28.331Z,20.24
2019-05-11T13:51:58.475Z,20.06
2019-05-11T13:54:29.646Z,20.07
2019-05-11T13:56:57.934Z,20.28
2019-05-11T13:59:28.030Z,19.85
2019-05-11T14:01:58.277Z,19.74
2019-05-11T14:04:28.137Z,20.22
2019-05-11T14:06:58.555Z,20.34
2019-05-11T14:09:29.125Z,20.28
2019-05-11T14:11:58.326Z,20.38
2019-05-11T14:14:28.713Z,20.19
2019-05-11T14:16:58.786Z,20.05
2019-05-11T14:19:28.962Z,19.85
2019-05-11T14:21:58.241Z,19.80
2019-05-11T14:24:28.835Z,19.44
2019-05-11T14:26:58.037Z,19.48
2019-05-11T14:29:28.414Z,19.12
2019-05-11T14:31:58.044Z,18.33
2019-05-11T14:34:28.373Z,18.18
2019-05-11T14:36:58.267Z,17.94
2019-05-11T14:39:27.959Z,17.59
2019-05-11T14:41:58.680Z,17.27
2019-05-11T14:44:28.513Z,17.40
2019-05-11T14:46:59.236Z,17.32
2019-05-11T14:49:28.107Z,17.63
2019-05-11T14:51:57.746Z,17.40
2019-05-11T14:54:28.916Z,17.53
2019-05-11T14:56:58.589Z,17.70
2019-05-11T14:59:28.581Z,17.54
2019-05-11T15:01:58.345Z,17.38
2019-05-11T15:04:28.683Z,17.28
2019-05-11T15:06:58.004Z,16.78
2019-05-11T15:09:28.561Z,17.04
2019-05-11T15:11:58.944Z,17.05
2019-05-11T15:14:28.887Z,17.06
2019-05-11T15:16:57.885Z,16.84
2019-05-11T15:19:27.816Z,16.76
2019-05-11T15:21:58.123Z,16.75
2019-05-11T15:24:28.731Z,16.95
2019-05-11T15:26:57.699Z,16.78
2019-05-11T15:29:28.577Z,16.66
2019-05-11T15:31:57.857Z,16.46
2019-05-11T15:34:28.884Z,16.26
2019-05-11T15:36:58.278Z,16.01
2019-05-11T15:39:28.729Z,15.86
2019-05-11T15:42:09.252Z,16.11
2019-05-11T15:44:28.687Z,16.25
2019-05-11T15:46:58.277Z,16.09
2019-05-11T15:49:28.364Z,15.99
2019-05-11T15:51:58.034Z,15.89
2019-05-11T15:54:28.878Z,15.44
2019-05-11T15:56:59.660Z,15.43
2019-05-11T15:59:27.884Z,15.16
2019-05-11T16:01:58.264Z,14.47
2019-05-11T16:04:28.150Z,14.54
2019-05-11T16:06:57.522Z,14.26
2019-05-11T16:09:39.279Z,12.89
2019-05-11T16:12:06.314Z,12.35
2019-05-11T16:14:34.935Z,12.42
2019-05-11T16:17:03.565Z,12.32
2019-05-11T16:19:32.281Z,11.82
2019-05-11T16:22:00.950Z,12.00
2019-05-11T16:24:29.643Z,11.66
2019-05-11T16:26:59.739Z,11.17
2019-05-11T16:29:28.428Z,11.02
2019-05-11T16:31:58.250Z,10.83
2019-05-11T16:34:27.784Z,10.64
2019-05-11T16:36:56.888Z,10.73
2019-05-11T16:39:27.823Z,10.73
2019-05-11T16:41:57.838Z,10.73
2019-05-11T16:44:26.496Z,10.51
2019-05-11T16:46:55.205Z,10.86
2019-05-11T16:49:28.903Z,10.69
2019-05-11T16:51:54.558Z,10.27
2019-05-11T16:54:23.284Z,10.37
2019-05-11T16:56:52.126Z,10.43
2019-05-11T16:59:20.886Z,10.18
2019-05-11T17:01:49.736Z,10.07
2019-05-11T17:04:18.387Z,10.04
2019-05-11T17:06:48.627Z,9.84
2019-05-11T17:09:18.108Z,9.50
2019-05-11T17:11:49.000Z,9.34
2019-05-11T17:14:20.324Z,9.33
2019-05-11T17:16:48.958Z,9.32
2019-05-11T17:19:18.448Z,9.04
2019-05-11T17:21:48.872Z,9.25
2019-05-11T17:24:17.536Z,8.98
2019-05-11T17:26:47.789Z,9.15
2019-05-11T17:29:18.594Z,8.97
2019-05-11T17:31:48.448Z,9.01
2019-05-11T17:34:20.247Z,8.96
2019-05-11T17:36:48.034Z,8.78
2019-05-11T17:39:18.810Z,8.87
2019-05-11T17:41:48.023Z,8.85
2019-05-11T17:44:20.897Z,9.15
2019-05-11T17:46:47.149Z,9.14
2019-05-11T17:49:15.815Z,8.92
2019-05-11T17:51:44.574Z,8.94
2019-05-11T17:54:13.197Z,8.98
2019-05-11T17:56:43.554Z,9.11
2019-05-11T17:59:12.260Z,8.92
2019-05-11T18:01:40.987Z,8.66
2019-05-11T18:04:09.819Z,8.54
2019-05-11T18:06:42.789Z,8.51
2019-05-11T18:09:13.034Z,8.44
2019-05-11T18:11:41.757Z,8.57
2019-05-11T18:14:10.405Z,8.46
2019-05-11T18:16:41.948Z,8.47
2019-05-11T18:19:10.642Z,8.70
2019-05-11T18:21:39.279Z,8.51
2019-05-11T18:24:09.200Z,8.46
2019-05-11T18:26:38.435Z,8.37
2019-05-11T18:29:07.312Z,8.29
2019-05-11T18:31:38.369Z,8.51
2019-05-11T18:34:08.756Z,8.27
2019-05-11T18:36:38.155Z,8.24
2019-05-11T18:39:08.702Z,8.03
2019-05-11T18:41:40.599Z,8.30
2019-05-11T18:44:09.442Z,8.20
2019-05-11T18:46:38.877Z,8.25
2019-05-11T18:49:08.157Z,8.13
2019-05-11T18:51:41.588Z,8.15
2019-05-11T18:54:13.699Z,8.22
2019-05-11T18:56:43.544Z,8.33
2019-05-11T18:59:12.207Z,8.32
2019-05-11T19:01:41.010Z,8.12
2019-05-11T19:04:09.833Z,8.28
2019-05-11T19:06:38.522Z,8.23
2019-05-11T19:09:07.783Z,8.02
2019-05-11T19:11:38.379Z,8.15
2019-05-11T19:14:08.538Z,8.30
2019-05-11T19:16:39.044Z,8.26
2019-05-11T19:19:08.329Z,8.25
2019-05-11T19:21:37.079Z,8.39
2019-05-11T19:24:09.390Z,8.35
2019-05-11T19:26:37.798Z,8.41
2019-05-11T19:29:09.066Z,8.36
2019-05-11T19:31:38.649Z,8.37
2019-05-11T19:34:09.087Z,8.44
2019-05-11T19:36:38.210Z,8.49
2019-05-11T19:39:09.078Z,8.42
2019-05-11T19:41:38.160Z,8.52
2019-05-11T19:44:08.544Z,8.39
2019-05-11T19:46:38.848Z,8.33
2019-05-11T19:49:08.612Z,8.33
2019-05-11T19:51:42.336Z,8.12
2019-05-11T19:54:08.508Z,8.16
2019-05-11T19:56:38.401Z,8.15
2019-05-11T19:59:08.537Z,8.09
2019-05-11T20:01:38.642Z,8.18
2019-05-11T20:04:08.254Z,8.13
2019-05-11T20:06:38.532Z,8.25
2019-05-11T20:09:09.207Z,8.24
2019-05-11T20:11:38.482Z,8.21
2019-05-11T20:14:08.093Z,8.25
2019-05-11T20:16:37.047Z,8.17
2019-05-11T20:19:08.443Z,8.23
2019-05-11T20:21:38.149Z,8.35
2019-05-11T20:24:08.522Z,8.27
2019-05-11T20:26:39.033Z,8.30
2019-05-11T20:29:08.290Z,8.29
2019-05-11T20:31:37.129Z,8.20
2019-05-11T20:34:05.869Z,8.13
2019-05-11T20:36:34.551Z,8.10
2019-05-11T20:39:04.822Z,8.28
2019-05-11T20:41:33.901Z,8.21
2019-05-11T20:44:02.619Z,7.98
2019-05-11T20:46:31.257Z,7.78
2019-05-11T20:48:59.963Z,7.76
2019-05-11T20:51:36.698Z,7.74
2019-05-11T20:53:59.514Z,7.80
2019-05-11T20:56:29.753Z,7.76
2019-05-11T20:58:59.710Z,7.84
2019-05-11T21:01:29.042Z,8.07
2019-05-11T21:03:59.651Z,8.13
2019-05-11T21:06:29.558Z,8.15
2019-05-11T21:08:58.514Z,8.07
2019-05-11T21:11:28.549Z,8.15
2019-05-11T21:13:57.132Z,8.26
2019-05-11T21:16:25.869Z,8.15
2019-05-11T21:18:54.590Z,8.13
2019-05-11T21:21:23.293Z,8.12
2019-05-11T21:23:51.938Z,7.86
2019-05-11T21:26:20.568Z,7.97
2019-05-11T21:28:49.275Z,8.16
2019-05-11T21:31:18.557Z,8.19
2019-05-11T21:33:47.521Z,8.17
2019-05-11T21:36:18.021Z,8.23
2019-05-11T21:38:48.863Z,8.20
2019-05-11T21:41:17.531Z,8.16
2019-05-11T21:43:48.207Z,8.18
2019-05-11T21:46:18.115Z,8.12
2019-05-11T21:48:47.833Z,8.14
2019-05-11T21:51:18.108Z,8.09
2019-05-11T21:53:48.671Z,8.05
2019-05-11T21:56:18.709Z,7.99
2019-05-11T21:58:47.638Z,8.08
2019-05-11T22:01:20.142Z,7.98
2019-05-11T22:03:47.884Z,7.95
2019-05-11T22:06:16.771Z,7.85
2019-05-11T22:08:45.382Z,7.79
2019-05-11T22:11:14.365Z,7.88
2019-05-11T22:13:43.109Z,7.80
2019-05-11T22:16:11.809Z,7.80
2019-05-11T22:18:40.516Z,7.96
2019-05-11T22:21:10.723Z,7.83
2019-05-11T22:23:39.401Z,7.73
2019-05-11T22:26:08.033Z,7.86
2019-05-11T22:28:38.842Z,7.89
2019-05-11T22:31:07.860Z,7.92
2019-05-11T22:33:38.537Z,7.92
2019-05-11T22:36:07.237Z,7.77
2019-05-11T22:38:35.935Z,7.95
2019-05-11T22:41:04.544Z,7.88
2019-05-11T22:43:33.232Z,7.90
2019-05-11T22:46:01.877Z,8.01
2019-05-11T22:48:30.531Z,7.97
2019-05-11T22:50:59.148Z,7.99
2019-05-11T22:53:43.914Z,7.95
2019-05-11T22:55:59.840Z,7.83
2019-05-11T22:58:28.536Z,7.78
2019-05-11T23:00:59.552Z,7.56
2019-05-11T23:03:27.905Z,7.54
2019-05-11T23:05:58.156Z,7.59
2019-05-11T23:08:26.981Z,7.65
2019-05-11T23:10:55.661Z,7.69
2019-05-11T23:13:24.277Z,7.71
2019-05-11T23:15:52.946Z,7.84
2019-05-11T23:18:21.681Z,7.90
2019-05-11T23:20:50.460Z,7.96
2019-05-11T23:23:19.066Z,8.00
2019-05-11T23:25:47.734Z,7.95
2019-05-11T23:28:18.438Z,7.75
2019-05-11T23:30:47.758Z,7.77
2019-05-11T23:33:18.297Z,7.92
2019-05-11T23:35:48.538Z,7.93
2019-05-11T23:38:17.759Z,7.96
2019-05-11T23:40:48.147Z,7.96
2019-05-11T23:43:19.181Z,7.93
2019-05-11T23:45:47.249Z,7.92
2019-05-11T23:48:15.924Z,7.80
2019-05-11T23:50:44.534Z,7.76
2019-05-11T23:53:13.213Z,7.85
2019-05-11T23:55:41.890Z,7.89
2019-05-11T23:58:10.610Z,7.96
